sensor_id;sensor_type;location;lat;lon;timestamp;P1;durP1;ratioP1;P2;durP2;ratioP2
18983;SDS011;9626;52.552;13.436;2023-11-19T00:01:23;7.27;;;5.70;;
18983;SDS011;9626;52.552;13.436;2023-11-19T00:03:49;11.27;;;5.60;;
18983;SDS011;9626;52.552;13.436;2023-11-19T00:06:15;6.50;;;4.80;;
18983;SDS011;9626;52.552;13.436;2023-11-19T00:08:42;6.67;;;4.93;;
18983;SDS011;9626;52.552;13.436;2023-11-19T00:11:09;10.40;;;5.67;;
18983;SDS011;9626;52.552;13.436;2023-11-19T00:13:35;8.10;;;5.33;;
18983;SDS011;9626;52.552;13.436;2023-11-19T00:16:01;7.33;;;5.03;;
18983;SDS011;9626;52.552;13.436;2023-11-19T00:18:30;6.73;;;4.87;;
18983;SDS011;9626;52.552;13.436;2023-11-19T00:20:56;9.17;;;5.50;;
18983;SDS011;9626;52.552;13.436;2023-11-19T00:23:22;7.83;;;5.60;;
18983;SDS011;9626;52.552;13.436;2023-11-19T00:25:48;8.40;;;5.23;;
18983;SDS011;9626;52.552;13.436;2023-11-19T00:28:14;6.03;;;5.17;;
18983;SDS011;9626;52.552;13.436;2023-11-19T00:30:40;6.37;;;5.20;;
18983;SDS011;9626;52.552;13.436;2023-11-19T00:33:25;9.40;;;5.40;;
18983;SDS011;9626;52.552;13.436;2023-11-19T00:35:51;10.50;;;5.63;;
18983;SDS011;9626;52.552;13.436;2023-11-19T00:38:17;7.50;;;5.00;;
18983;SDS011;9626;52.552;13.436;2023-11-19T00:40:43;8.00;;;5.03;;
18983;SDS011;9626;52.552;13.436;2023-11-19T00:43:10;9.27;;;5.57;;
18983;SDS011;9626;52.552;13.436;2023-11-19T00:45:36;6.43;;;5.13;;
18983;SDS011;9626;52.552;13.436;2023-11-19T00:48:20;7.60;;;5.13;;
18983;SDS011;9626;52.552;13.436;2023-11-19T00:50:46;7.83;;;5.47;;
18983;SDS011;9626;52.552;13.436;2023-11-19T00:53:12;7.57;;;4.80;;
18983;SDS011;9626;52.552;13.436;2023-11-19T00:55:57;6.23;;;4.80;;
18983;SDS011;9626;52.552;13.436;2023-11-19T00:58:24;7.33;;;4.90;;
18983;SDS011;9626;52.552;13.436;2023-11-19T01:00:50;6.27;;;4.87;;
18983;SDS011;9626;52.552;13.436;2023-11-19T01:03:17;5.30;;;4.30;;
18983;SDS011;9626;52.552;13.436;2023-11-19T01:06:03;6.10;;;5.30;;
18983;SDS011;9626;52.552;13.436;2023-11-19T01:08:42;6.23;;;4.40;;
18983;SDS011;9626;52.552;13.436;2023-11-19T01:11:19;8.50;;;5.00;;
18983;SDS011;9626;52.552;13.436;2023-11-19T01:13:46;8.63;;;4.90;;
18983;SDS011;9626;52.552;13.436;2023-11-19T01:16:31;6.70;;;4.97;;
18983;SDS011;9626;52.552;13.436;2023-11-19T01:19:03;6.13;;;4.80;;
18983;SDS011;9626;52.552;13.436;2023-11-19T01:21:30;6.90;;;4.63;;
18983;SDS011;9626;52.552;13.436;2023-11-19T01:23:57;5.93;;;4.70;;
18983;SDS011;9626;52.552;13.436;2023-11-19T01:26:25;6.13;;;4.40;;
18983;SDS011;9626;52.552;13.436;2023-11-19T01:29:04;7.20;;;5.00;;
18983;SDS011;9626;52.552;13.436;2023-11-19T01:31:36;7.63;;;4.90;;
18983;SDS011;9626;52.552;13.436;2023-11-19T01:34:03;5.63;;;4.30;;
18983;SDS011;9626;52.552;13.436;2023-11-19T01:36:29;8.37;;;4.53;;
18983;SDS011;9626;52.552;13.436;2023-11-19T01:38:55;6.23;;;4.77;;
18983;SDS011;9626;52.552;13.436;2023-11-19T01:41:21;6.93;;;4.50;;
18983;SDS011;9626;52.552;13.436;2023-11-19T01:43:47;6.37;;;4.43;;
18983;SDS011;9626;52.552;13.436;2023-11-19T01:46:13;6.17;;;5.03;;
18983;SDS011;9626;52.552;13.436;2023-11-19T01:48:41;6.53;;;4.40;;
18983;SDS011;9626;52.552;13.436;2023-11-19T01:51:11;6.90;;;4.43;;
18983;SDS011;9626;52.552;13.436;2023-11-19T01:53:38;6.47;;;5.27;;
18983;SDS011;9626;52.552;13.436;2023-11-19T01:56:06;9.00;;;4.57;;
18983;SDS011;9626;52.552;13.436;2023-11-19T01:58:36;7.13;;;4.60;;
18983;SDS011;9626;52.552;13.436;2023-11-19T02:01:05;5.83;;;4.30;;
18983;SDS011;9626;52.552;13.436;2023-11-19T02:03:33;6.43;;;4.70;;
18983;SDS011;9626;52.552;13.436;2023-11-19T02:05:59;6.93;;;4.73;;
18983;SDS011;9626;52.552;13.436;2023-11-19T02:08:26;7.67;;;5.30;;
18983;SDS011;9626;52.552;13.436;2023-11-19T02:10:52;5.20;;;4.60;;
18983;SDS011;9626;52.552;13.436;2023-11-19T02:13:20;8.37;;;4.50;;
18983;SDS011;9626;52.552;13.436;2023-11-19T02:15:46;7.07;;;4.53;;
18983;SDS011;9626;52.552;13.436;2023-11-19T02:18:22;7.33;;;5.10;;
18983;SDS011;9626;52.552;13.436;2023-11-19T02:20:54;7.90;;;5.53;;
18983;SDS011;9626;52.552;13.436;2023-11-19T02:23:21;5.53;;;4.10;;
18983;SDS011;9626;52.552;13.436;2023-11-19T02:25:52;5.70;;;4.23;;
18983;SDS011;9626;52.552;13.436;2023-11-19T02:28:41;6.90;;;4.93;;
18983;SDS011;9626;52.552;13.436;2023-11-19T02:31:10;5.77;;;4.57;;
18983;SDS011;9626;52.552;13.436;2023-11-19T02:33:37;5.77;;;4.13;;
18983;SDS011;9626;52.552;13.436;2023-11-19T02:36:04;6.70;;;4.10;;
18983;SDS011;9626;52.552;13.436;2023-11-19T02:38:33;5.30;;;4.47;;
18983;SDS011;9626;52.552;13.436;2023-11-19T02:41:02;5.60;;;4.20;;
18983;SDS011;9626;52.552;13.436;2023-11-19T02:43:31;4.73;;;4.10;;
18983;SDS011;9626;52.552;13.436;2023-11-19T02:46:01;5.40;;;4.17;;
18983;SDS011;9626;52.552;13.436;2023-11-19T02:48:30;4.93;;;3.90;;
18983;SDS011;9626;52.552;13.436;2023-11-19T02:50:56;5.00;;;4.23;;
18983;SDS011;9626;52.552;13.436;2023-11-19T02:53:24;5.30;;;4.30;;
18983;SDS011;9626;52.552;13.436;2023-11-19T02:55:53;5.93;;;4.10;;
18983;SDS011;9626;52.552;13.436;2023-11-19T02:58:19;5.87;;;4.17;;
18983;SDS011;9626;52.552;13.436;2023-11-19T03:00:45;6.77;;;4.07;;
18983;SDS011;9626;52.552;13.436;2023-11-19T03:03:19;5.03;;;3.60;;
18983;SDS011;9626;52.552;13.436;2023-11-19T03:05:48;5.03;;;3.50;;
18983;SDS011;9626;52.552;13.436;2023-11-19T03:08:17;7.73;;;3.93;;
18983;SDS011;9626;52.552;13.436;2023-11-19T03:10:43;4.93;;;3.73;;
18983;SDS011;9626;52.552;13.436;2023-11-19T03:13:11;4.33;;;3.33;;
18983;SDS011;9626;52.552;13.436;2023-11-19T03:16:00;7.67;;;3.80;;
18983;SDS011;9626;52.552;13.436;2023-11-19T03:18:26;4.10;;;3.17;;
18983;SDS011;9626;52.552;13.436;2023-11-19T03:20:54;4.60;;;3.60;;
18983;SDS011;9626;52.552;13.436;2023-11-19T03:23:20;5.03;;;3.83;;
18983;SDS011;9626;52.552;13.436;2023-11-19T03:25:46;4.27;;;3.47;;
18983;SDS011;9626;52.552;13.436;2023-11-19T03:28:12;4.23;;;3.27;;
18983;SDS011;9626;52.552;13.436;2023-11-19T03:30:38;3.40;;;2.90;;
18983;SDS011;9626;52.552;13.436;2023-11-19T03:33:04;4.13;;;3.37;;
18983;SDS011;9626;52.552;13.436;2023-11-19T03:35:30;4.07;;;3.10;;
18983;SDS011;9626;52.552;13.436;2023-11-19T03:37:57;5.77;;;3.80;;
18983;SDS011;9626;52.552;13.436;2023-11-19T03:40:23;4.37;;;3.20;;
18983;SDS011;9626;52.552;13.436;2023-11-19T03:42:50;4.80;;;3.87;;
18983;SDS011;9626;52.552;13.436;2023-11-19T03:45:16;6.80;;;4.40;;
18983;SDS011;9626;52.552;13.436;2023-11-19T03:47:42;7.10;;;4.10;;
18983;SDS011;9626;52.552;13.436;2023-11-19T03:50:09;5.83;;;4.20;;
18983;SDS011;9626;52.552;13.436;2023-11-19T03:52:35;6.47;;;4.40;;
18983;SDS011;9626;52.552;13.436;2023-11-19T03:55:01;5.20;;;3.90;;
18983;SDS011;9626;52.552;13.436;2023-11-19T03:57:30;6.83;;;4.43;;
18983;SDS011;9626;52.552;13.436;2023-11-19T03:59:56;6.50;;;4.70;;
18983;SDS011;9626;52.552;13.436;2023-11-19T04:02:24;5.73;;;4.73;;
18983;SDS011;9626;52.552;13.436;2023-11-19T04:04:53;6.37;;;4.77;;
18983;SDS011;9626;52.552;13.436;2023-11-19T04:07:20;5.80;;;4.60;;
18983;SDS011;9626;52.552;13.436;2023-11-19T04:09:46;7.07;;;4.43;;
18983;SDS011;9626;52.552;13.436;2023-11-19T04:12:13;7.37;;;5.70;;
18983;SDS011;9626;52.552;13.436;2023-11-19T04:14:39;5.03;;;4.47;;
18983;SDS011;9626;52.552;13.436;2023-11-19T04:17:06;7.70;;;5.20;;
18983;SDS011;9626;52.552;13.436;2023-11-19T04:19:32;7.67;;;4.93;;
18983;SDS011;9626;52.552;13.436;2023-11-19T04:22:16;6.90;;;5.20;;
18983;SDS011;9626;52.552;13.436;2023-11-19T04:24:48;7.20;;;4.97;;
18983;SDS011;9626;52.552;13.436;2023-11-19T04:27:33;6.73;;;6.13;;
18983;SDS011;9626;52.552;13.436;2023-11-19T04:30:02;6.63;;;5.93;;
18983;SDS011;9626;52.552;13.436;2023-11-19T04:32:29;6.73;;;5.50;;
18983;SDS011;9626;52.552;13.436;2023-11-19T04:34:55;7.40;;;6.23;;
18983;SDS011;9626;52.552;13.436;2023-11-19T04:37:21;6.63;;;5.90;;
18983;SDS011;9626;52.552;13.436;2023-11-19T04:39:47;6.63;;;4.77;;
18983;SDS011;9626;52.552;13.436;2023-11-19T04:42:13;10.63;;;5.53;;
18983;SDS011;9626;52.552;13.436;2023-11-19T04:44:42;6.17;;;4.90;;
18983;SDS011;9626;52.552;13.436;2023-11-19T04:47:10;6.30;;;5.40;;
18983;SDS011;9626;52.552;13.436;2023-11-19T04:49:40;7.97;;;6.20;;
18983;SDS011;9626;52.552;13.436;2023-11-19T04:52:08;7.83;;;5.40;;
18983;SDS011;9626;52.552;13.436;2023-11-19T04:54:34;8.63;;;5.90;;
18983;SDS011;9626;52.552;13.436;2023-11-19T04:57:01;8.77;;;6.50;;
18983;SDS011;9626;52.552;13.436;2023-11-19T04:59:27;8.27;;;5.70;;
18983;SDS011;9626;52.552;13.436;2023-11-19T05:01:53;8.23;;;5.70;;
18983;SDS011;9626;52.552;13.436;2023-11-19T05:04:19;8.97;;;5.10;;
18983;SDS011;9626;52.552;13.436;2023-11-19T05:06:45;7.73;;;5.50;;
18983;SDS011;9626;52.552;13.436;2023-11-19T05:09:11;8.10;;;5.83;;
18983;SDS011;9626;52.552;13.436;2023-11-19T05:11:39;8.00;;;6.13;;
18983;SDS011;9626;52.552;13.436;2023-11-19T05:14:06;8.87;;;6.20;;
18983;SDS011;9626;52.552;13.436;2023-11-19T05:16:32;7.80;;;6.00;;
18983;SDS011;9626;52.552;13.436;2023-11-19T05:18:58;8.10;;;5.40;;
18983;SDS011;9626;52.552;13.436;2023-11-19T05:21:24;8.40;;;5.87;;
18983;SDS011;9626;52.552;13.436;2023-11-19T05:23:50;7.87;;;5.93;;
18983;SDS011;9626;52.552;13.436;2023-11-19T05:26:19;8.10;;;5.60;;
18983;SDS011;9626;52.552;13.436;2023-11-19T05:28:46;6.10;;;5.30;;
18983;SDS011;9626;52.552;13.436;2023-11-19T05:31:12;5.90;;;5.00;;
18983;SDS011;9626;52.552;13.436;2023-11-19T05:33:38;7.80;;;5.67;;
18983;SDS011;9626;52.552;13.436;2023-11-19T05:36:04;9.50;;;5.73;;
18983;SDS011;9626;52.552;13.436;2023-11-19T05:38:31;6.30;;;5.13;;
18983;SDS011;9626;52.552;13.436;2023-11-19T05:40:57;7.30;;;5.63;;
18983;SDS011;9626;52.552;13.436;2023-11-19T05:43:23;8.83;;;6.53;;
18983;SDS011;9626;52.552;13.436;2023-11-19T05:45:49;7.43;;;5.97;;
18983;SDS011;9626;52.552;13.436;2023-11-19T05:48:15;6.77;;;5.90;;
18983;SDS011;9626;52.552;13.436;2023-11-19T05:50:42;6.97;;;6.20;;
18983;SDS011;9626;52.552;13.436;2023-11-19T05:53:08;7.00;;;5.23;;
18983;SDS011;9626;52.552;13.436;2023-11-19T05:55:39;7.60;;;6.47;;
18983;SDS011;9626;52.552;13.436;2023-11-19T05:58:14;6.93;;;5.93;;
18983;SDS011;9626;52.552;13.436;2023-11-19T06:00:41;6.80;;;4.87;;
18983;SDS011;9626;52.552;13.436;2023-11-19T06:03:07;7.50;;;5.40;;
18983;SDS011;9626;52.552;13.436;2023-11-19T06:05:33;6.07;;;4.73;;
18983;SDS011;9626;52.552;13.436;2023-11-19T06:07:59;7.67;;;5.47;;
18983;SDS011;9626;52.552;13.436;2023-11-19T06:10:25;8.37;;;5.20;;
18983;SDS011;9626;52.552;13.436;2023-11-19T06:12:59;6.00;;;4.80;;
18983;SDS011;9626;52.552;13.436;2023-11-19T06:15:25;7.10;;;5.23;;
18983;SDS011;9626;52.552;13.436;2023-11-19T06:17:53;6.17;;;4.80;;
18983;SDS011;9626;52.552;13.436;2023-11-19T06:20:20;6.70;;;6.03;;
18983;SDS011;9626;52.552;13.436;2023-11-19T06:22:49;7.37;;;4.87;;
18983;SDS011;9626;52.552;13.436;2023-11-19T06:25:15;5.77;;;4.53;;
18983;SDS011;9626;52.552;13.436;2023-11-19T06:27:42;4.97;;;4.07;;
18983;SDS011;9626;52.552;13.436;2023-11-19T06:30:08;7.83;;;5.70;;
18983;SDS011;9626;52.552;13.436;2023-11-19T06:32:35;6.60;;;5.90;;
18983;SDS011;9626;52.552;13.436;2023-11-19T06:35:02;6.00;;;4.60;;
18983;SDS011;9626;52.552;13.436;2023-11-19T06:37:30;4.93;;;4.00;;
18983;SDS011;9626;52.552;13.436;2023-11-19T06:39:56;6.43;;;5.43;;
18983;SDS011;9626;52.552;13.436;2023-11-19T06:42:22;5.80;;;5.30;;
18983;SDS011;9626;52.552;13.436;2023-11-19T06:44:50;5.23;;;4.27;;
18983;SDS011;9626;52.552;13.436;2023-11-19T06:47:17;6.63;;;4.63;;
18983;SDS011;9626;52.552;13.436;2023-11-19T06:49:44;5.57;;;4.50;;
18983;SDS011;9626;52.552;13.436;2023-11-19T06:52:10;6.87;;;5.30;;
18983;SDS011;9626;52.552;13.436;2023-11-19T06:54:37;4.53;;;4.07;;
18983;SDS011;9626;52.552;13.436;2023-11-19T06:57:04;4.30;;;3.90;;
18983;SDS011;9626;52.552;13.436;2023-11-19T06:59:30;4.53;;;3.93;;
18983;SDS011;9626;52.552;13.436;2023-11-19T07:01:57;7.40;;;4.50;;
18983;SDS011;9626;52.552;13.436;2023-11-19T07:04:23;8.67;;;4.50;;
18983;SDS011;9626;52.552;13.436;2023-11-19T07:06:49;5.67;;;3.80;;
18983;SDS011;9626;52.552;13.436;2023-11-19T07:09:15;6.20;;;5.60;;
18983;SDS011;9626;52.552;13.436;2023-11-19T07:11:41;6.00;;;5.40;;
18983;SDS011;9626;52.552;13.436;2023-11-19T07:14:08;5.73;;;5.23;;
18983;SDS011;9626;52.552;13.436;2023-11-19T07:16:34;5.30;;;4.80;;
18983;SDS011;9626;52.552;13.436;2023-11-19T07:19:05;4.53;;;3.53;;
18983;SDS011;9626;52.552;13.436;2023-11-19T07:21:31;5.37;;;4.00;;
18983;SDS011;9626;52.552;13.436;2023-11-19T07:23:59;4.20;;;3.80;;
18983;SDS011;9626;52.552;13.436;2023-11-19T07:26:25;6.73;;;4.50;;
18983;SDS011;9626;52.552;13.436;2023-11-19T07:28:52;5.27;;;4.67;;
18983;SDS011;9626;52.552;13.436;2023-11-19T07:31:18;5.20;;;4.70;;
18983;SDS011;9626;52.552;13.436;2023-11-19T07:33:48;5.63;;;3.63;;
18983;SDS011;9626;52.552;13.436;2023-11-19T07:36:14;4.27;;;3.73;;
18983;SDS011;9626;52.552;13.436;2023-11-19T07:38:40;3.60;;;3.30;;
18983;SDS011;9626;52.552;13.436;2023-11-19T07:41:07;4.20;;;3.43;;
18983;SDS011;9626;52.552;13.436;2023-11-19T07:43:35;6.13;;;3.70;;
18983;SDS011;9626;52.552;13.436;2023-11-19T07:46:02;5.30;;;4.00;;
18983;SDS011;9626;52.552;13.436;2023-11-19T07:48:30;4.80;;;3.90;;
18983;SDS011;9626;52.552;13.436;2023-11-19T07:50:56;5.43;;;3.83;;
18983;SDS011;9626;52.552;13.436;2023-11-19T07:53:22;4.47;;;3.60;;
18983;SDS011;9626;52.552;13.436;2023-11-19T07:55:48;4.10;;;3.70;;
18983;SDS011;9626;52.552;13.436;2023-11-19T07:58:14;5.33;;;4.83;;
18983;SDS011;9626;52.552;13.436;2023-11-19T08:00:41;5.13;;;4.03;;
18983;SDS011;9626;52.552;13.436;2023-11-19T08:03:07;4.57;;;4.07;;
18983;SDS011;9626;52.552;13.436;2023-11-19T08:05:33;5.33;;;3.80;;
18983;SDS011;9626;52.552;13.436;2023-11-19T08:07:59;5.33;;;4.87;;
18983;SDS011;9626;52.552;13.436;2023-11-19T08:10:26;5.23;;;4.73;;
18983;SDS011;9626;52.552;13.436;2023-11-19T08:12:52;5.73;;;5.07;;
18983;SDS011;9626;52.552;13.436;2023-11-19T08:15:18;5.73;;;5.20;;
18983;SDS011;9626;52.552;13.436;2023-11-19T08:17:44;5.47;;;4.97;;
18983;SDS011;9626;52.552;13.436;2023-11-19T08:20:10;4.60;;;3.80;;
18983;SDS011;9626;52.552;13.436;2023-11-19T08:22:37;5.33;;;3.70;;
18983;SDS011;9626;52.552;13.436;2023-11-19T08:25:06;4.37;;;3.50;;
18983;SDS011;9626;52.552;13.436;2023-11-19T08:27:33;6.53;;;4.10;;
18983;SDS011;9626;52.552;13.436;2023-11-19T08:29:59;6.03;;;3.80;;
18983;SDS011;9626;52.552;13.436;2023-11-19T08:32:25;4.57;;;3.90;;
18983;SDS011;9626;52.552;13.436;2023-11-19T08:34:53;4.30;;;3.67;;
18983;SDS011;9626;52.552;13.436;2023-11-19T08:37:19;4.57;;;4.03;;
18983;SDS011;9626;52.552;13.436;2023-11-19T08:39:47;6.87;;;4.20;;
18983;SDS011;9626;52.552;13.436;2023-11-19T08:42:13;5.90;;;3.90;;
18983;SDS011;9626;52.552;13.436;2023-11-19T08:44:39;6.07;;;4.97;;
18983;SDS011;9626;52.552;13.436;2023-11-19T08:47:12;4.53;;;3.87;;
18983;SDS011;9626;52.552;13.436;2023-11-19T08:49:39;4.93;;;4.07;;
18983;SDS011;9626;52.552;13.436;2023-11-19T08:52:05;6.03;;;3.90;;
18983;SDS011;9626;52.552;13.436;2023-11-19T08:54:34;8.50;;;4.60;;
18983;SDS011;9626;52.552;13.436;2023-11-19T08:57:00;5.03;;;4.43;;
18983;SDS011;9626;52.552;13.436;2023-11-19T08:59:29;5.47;;;4.63;;
18983;SDS011;9626;52.552;13.436;2023-11-19T09:01:55;7.37;;;4.90;;
18983;SDS011;9626;52.552;13.436;2023-11-19T09:04:21;5.80;;;4.43;;
18983;SDS011;9626;52.552;13.436;2023-11-19T09:06:50;6.00;;;5.30;;
18983;SDS011;9626;52.552;13.436;2023-11-19T09:09:16;5.97;;;4.63;;
18983;SDS011;9626;52.552;13.436;2023-11-19T09:11:42;5.60;;;4.33;;
18983;SDS011;9626;52.552;13.436;2023-11-19T09:14:08;7.23;;;5.23;;
18983;SDS011;9626;52.552;13.436;2023-11-19T09:16:35;6.17;;;4.10;;
18983;SDS011;9626;52.552;13.436;2023-11-19T09:19:02;4.67;;;4.20;;
18983;SDS011;9626;52.552;13.436;2023-11-19T09:21:28;4.20;;;3.60;;
18983;SDS011;9626;52.552;13.436;2023-11-19T09:23:58;5.53;;;4.37;;
18983;SDS011;9626;52.552;13.436;2023-11-19T09:26:24;4.30;;;3.87;;
18983;SDS011;9626;52.552;13.436;2023-11-19T09:28:50;5.83;;;3.70;;
18983;SDS011;9626;52.552;13.436;2023-11-19T09:31:17;4.97;;;4.27;;
18983;SDS011;9626;52.552;13.436;2023-11-19T09:33:49;6.97;;;4.13;;
18983;SDS011;9626;52.552;13.436;2023-11-19T09:36:15;5.60;;;3.73;;
18983;SDS011;9626;52.552;13.436;2023-11-19T09:38:43;5.00;;;3.90;;
18983;SDS011;9626;52.552;13.436;2023-11-19T09:41:09;4.70;;;4.20;;
18983;SDS011;9626;52.552;13.436;2023-11-19T09:43:39;4.77;;;4.10;;
18983;SDS011;9626;52.552;13.436;2023-11-19T09:46:05;4.00;;;3.60;;
18983;SDS011;9626;52.552;13.436;2023-11-19T09:48:36;5.40;;;3.77;;
18983;SDS011;9626;52.552;13.436;2023-11-19T09:51:09;4.37;;;3.70;;
18983;SDS011;9626;52.552;13.436;2023-11-19T09:53:36;4.50;;;3.63;;
18983;SDS011;9626;52.552;13.436;2023-11-19T09:56:05;4.67;;;3.83;;
18983;SDS011;9626;52.552;13.436;2023-11-19T09:58:32;5.70;;;3.77;;
18983;SDS011;9626;52.552;13.436;2023-11-19T10:00:59;4.57;;;3.53;;
18983;SDS011;9626;52.552;13.436;2023-11-19T10:03:39;4.87;;;2.97;;
18983;SDS011;9626;52.552;13.436;2023-11-19T10:06:07;5.60;;;3.60;;
18983;SDS011;9626;52.552;13.436;2023-11-19T10:08:34;3.87;;;3.07;;
18983;SDS011;9626;52.552;13.436;2023-11-19T10:11:03;6.33;;;3.20;;
18983;SDS011;9626;52.552;13.436;2023-11-19T10:13:31;5.90;;;3.67;;
18983;SDS011;9626;52.552;13.436;2023-11-19T10:15:57;4.47;;;3.57;;
18983;SDS011;9626;52.552;13.436;2023-11-19T10:18:24;4.47;;;3.17;;
18983;SDS011;9626;52.552;13.436;2023-11-19T10:20:52;4.60;;;2.50;;
18983;SDS011;9626;52.552;13.436;2023-11-19T10:23:19;9.23;;;3.30;;
18983;SDS011;9626;52.552;13.436;2023-11-19T10:25:45;8.17;;;2.83;;
18983;SDS011;9626;52.552;13.436;2023-11-19T10:28:11;3.93;;;2.73;;
18983;SDS011;9626;52.552;13.436;2023-11-19T10:30:37;6.90;;;3.57;;
18983;SDS011;9626;52.552;13.436;2023-11-19T10:33:13;3.70;;;2.40;;
18983;SDS011;9626;52.552;13.436;2023-11-19T10:35:58;6.20;;;2.47;;
18983;SDS011;9626;52.552;13.436;2023-11-19T10:38:25;5.90;;;2.80;;
18983;SDS011;9626;52.552;13.436;2023-11-19T10:40:53;4.43;;;2.67;;
18983;SDS011;9626;52.552;13.436;2023-11-19T10:43:20;6.33;;;2.93;;
18983;SDS011;9626;52.552;13.436;2023-11-19T10:45:50;5.93;;;3.13;;
18983;SDS011;9626;52.552;13.436;2023-11-19T10:48:17;5.30;;;1.97;;
18983;SDS011;9626;52.552;13.436;2023-11-19T10:50:44;5.20;;;2.27;;
18983;SDS011;9626;52.552;13.436;2023-11-19T10:53:12;4.30;;;2.47;;
18983;SDS011;9626;52.552;13.436;2023-11-19T10:55:45;5.60;;;2.40;;
18983;SDS011;9626;52.552;13.436;2023-11-19T10:58:15;8.93;;;2.60;;
18983;SDS011;9626;52.552;13.436;2023-11-19T11:00:48;3.57;;;2.37;;
18983;SDS011;9626;52.552;13.436;2023-11-19T11:03:22;7.87;;;3.00;;
18983;SDS011;9626;52.552;13.436;2023-11-19T11:05:55;7.43;;;2.93;;
18983;SDS011;9626;52.552;13.436;2023-11-19T11:08:28;7.97;;;2.20;;
18983;SDS011;9626;52.552;13.436;2023-11-19T11:10:56;11.50;;;2.17;;
18983;SDS011;9626;52.552;13.436;2023-11-19T11:13:29;9.13;;;2.60;;
18983;SDS011;9626;52.552;13.436;2023-11-19T11:15:57;15.07;;;3.17;;
18983;SDS011;9626;52.552;13.436;2023-11-19T11:18:24;12.47;;;2.73;;
18983;SDS011;9626;52.552;13.436;2023-11-19T11:20:54;10.27;;;2.60;;
18983;SDS011;9626;52.552;13.436;2023-11-19T11:31:36;11.10;;;2.90;;
18983;SDS011;9626;52.552;13.436;2023-11-19T11:34:26;8.63;;;2.50;;
18983;SDS011;9626;52.552;13.436;2023-11-19T11:39:39;8.33;;;2.73;;
18983;SDS011;9626;52.552;13.436;2023-11-19T11:45:03;10.70;;;2.70;;
18983;SDS011;9626;52.552;13.436;2023-11-19T11:50:16;9.73;;;2.87;;
18983;SDS011;9626;52.552;13.436;2023-11-19T11:55:34;14.37;;;3.87;;
18983;SDS011;9626;52.552;13.436;2023-11-19T11:58:05;14.07;;;3.07;;
18983;SDS011;9626;52.552;13.436;2023-11-19T12:00:32;12.67;;;3.00;;
18983;SDS011;9626;52.552;13.436;2023-11-19T12:03:04;14.23;;;3.00;;
18983;SDS011;9626;52.552;13.436;2023-11-19T12:05:40;17.30;;;3.60;;
18983;SDS011;9626;52.552;13.436;2023-11-19T12:08:09;17.77;;;3.37;;
18983;SDS011;9626;52.552;13.436;2023-11-19T12:10:43;16.83;;;3.87;;
18983;SDS011;9626;52.552;13.436;2023-11-19T12:13:13;11.13;;;3.00;;
18983;SDS011;9626;52.552;13.436;2023-11-19T12:18:27;22.57;;;3.87;;
18983;SDS011;9626;52.552;13.436;2023-11-19T12:20:55;19.30;;;3.73;;
18983;SDS011;9626;52.552;13.436;2023-11-19T12:23:24;14.27;;;3.53;;
18983;SDS011;9626;52.552;13.436;2023-11-19T12:25:51;14.53;;;3.73;;
18983;SDS011;9626;52.552;13.436;2023-11-19T12:28:18;12.33;;;3.90;;
18983;SDS011;9626;52.552;13.436;2023-11-19T12:30:44;17.90;;;4.40;;
18983;SDS011;9626;52.552;13.436;2023-11-19T12:33:12;19.13;;;3.77;;
18983;SDS011;9626;52.552;13.436;2023-11-19T12:35:39;16.77;;;4.00;;
18983;SDS011;9626;52.552;13.436;2023-11-19T12:38:05;15.57;;;4.10;;
18983;SDS011;9626;52.552;13.436;2023-11-19T12:40:32;14.20;;;3.27;;
18983;SDS011;9626;52.552;13.436;2023-11-19T12:42:59;12.97;;;3.77;;
18983;SDS011;9626;52.552;13.436;2023-11-19T12:45:38;15.63;;;4.20;;
18983;SDS011;9626;52.552;13.436;2023-11-19T12:48:08;16.13;;;3.63;;
18983;SDS011;9626;52.552;13.436;2023-11-19T12:50:56;16.10;;;3.60;;
18983;SDS011;9626;52.552;13.436;2023-11-19T12:53:23;17.60;;;3.50;;
18983;SDS011;9626;52.552;13.436;2023-11-19T12:55:51;20.37;;;3.90;;
18983;SDS011;9626;52.552;13.436;2023-11-19T12:58:36;18.37;;;3.70;;
18983;SDS011;9626;52.552;13.436;2023-11-19T13:01:03;13.57;;;3.70;;
18983;SDS011;9626;52.552;13.436;2023-11-19T13:03:34;26.67;;;4.83;;
18983;SDS011;9626;52.552;13.436;2023-11-19T13:06:04;16.27;;;4.13;;
18983;SDS011;9626;52.552;13.436;2023-11-19T13:11:05;23.83;;;4.87;;
18983;SDS011;9626;52.552;13.436;2023-11-19T13:13:52;15.87;;;3.77;;
18983;SDS011;9626;52.552;13.436;2023-11-19T13:16:19;15.03;;;3.43;;
18983;SDS011;9626;52.552;13.436;2023-11-19T13:18:45;17.97;;;3.70;;
18983;SDS011;9626;52.552;13.436;2023-11-19T13:21:12;19.67;;;4.63;;
18983;SDS011;9626;52.552;13.436;2023-11-19T13:23:38;16.17;;;3.70;;
18983;SDS011;9626;52.552;13.436;2023-11-19T13:26:05;20.63;;;4.60;;
18983;SDS011;9626;52.552;13.436;2023-11-19T13:28:31;19.67;;;4.10;;
18983;SDS011;9626;52.552;13.436;2023-11-19T13:30:57;15.30;;;3.47;;
18983;SDS011;9626;52.552;13.436;2023-11-19T13:33:23;19.77;;;4.20;;
18983;SDS011;9626;52.552;13.436;2023-11-19T13:35:49;18.63;;;3.97;;
18983;SDS011;9626;52.552;13.436;2023-11-19T13:38:15;17.70;;;4.23;;
18983;SDS011;9626;52.552;13.436;2023-11-19T13:40:41;18.20;;;4.10;;
18983;SDS011;9626;52.552;13.436;2023-11-19T13:43:08;18.60;;;4.10;;
18983;SDS011;9626;52.552;13.436;2023-11-19T13:45:34;18.50;;;4.70;;
18983;SDS011;9626;52.552;13.436;2023-11-19T13:48:00;21.40;;;4.37;;
18983;SDS011;9626;52.552;13.436;2023-11-19T13:50:27;17.40;;;4.57;;
18983;SDS011;9626;52.552;13.436;2023-11-19T13:52:54;16.03;;;3.73;;
18983;SDS011;9626;52.552;13.436;2023-11-19T13:55:20;20.67;;;5.10;;
18983;SDS011;9626;52.552;13.436;2023-11-19T13:57:48;17.47;;;4.07;;
18983;SDS011;9626;52.552;13.436;2023-11-19T14:00:14;19.50;;;5.13;;
18983;SDS011;9626;52.552;13.436;2023-11-19T14:02:45;21.57;;;5.90;;
18983;SDS011;9626;52.552;13.436;2023-11-19T14:05:13;23.33;;;5.97;;
18983;SDS011;9626;52.552;13.436;2023-11-19T14:07:41;21.97;;;5.20;;
18983;SDS011;9626;52.552;13.436;2023-11-19T14:10:07;17.80;;;4.50;;
18983;SDS011;9626;52.552;13.436;2023-11-19T14:12:37;22.90;;;5.97;;
18983;SDS011;9626;52.552;13.436;2023-11-19T14:15:04;23.03;;;4.67;;
18983;SDS011;9626;52.552;13.436;2023-11-19T14:17:38;22.67;;;6.00;;
18983;SDS011;9626;52.552;13.436;2023-11-19T14:20:05;18.50;;;5.27;;
18983;SDS011;9626;52.552;13.436;2023-11-19T14:22:43;21.67;;;4.90;;
18983;SDS011;9626;52.552;13.436;2023-11-19T14:25:10;22.80;;;5.00;;
18983;SDS011;9626;52.552;13.436;2023-11-19T14:27:39;15.70;;;4.67;;
18983;SDS011;9626;52.552;13.436;2023-11-19T14:30:06;17.53;;;4.87;;
18983;SDS011;9626;52.552;13.436;2023-11-19T14:32:37;23.50;;;5.13;;
18983;SDS011;9626;52.552;13.436;2023-11-19T14:35:05;18.63;;;5.37;;
18983;SDS011;9626;52.552;13.436;2023-11-19T14:37:33;23.87;;;4.60;;
18983;SDS011;9626;52.552;13.436;2023-11-19T14:39:59;22.37;;;4.97;;
18983;SDS011;9626;52.552;13.436;2023-11-19T14:42:26;26.57;;;5.70;;
18983;SDS011;9626;52.552;13.436;2023-11-19T14:44:52;23.57;;;4.77;;
18983;SDS011;9626;52.552;13.436;2023-11-19T14:47:22;20.30;;;4.77;;
18983;SDS011;9626;52.552;13.436;2023-11-19T14:49:50;25.97;;;5.93;;
18983;SDS011;9626;52.552;13.436;2023-11-19T14:52:17;21.50;;;4.83;;
18983;SDS011;9626;52.552;13.436;2023-11-19T14:54:43;16.70;;;4.20;;
18983;SDS011;9626;52.552;13.436;2023-11-19T14:57:09;19.53;;;4.30;;
18983;SDS011;9626;52.552;13.436;2023-11-19T14:59:35;25.50;;;5.33;;
18983;SDS011;9626;52.552;13.436;2023-11-19T15:02:02;22.57;;;4.93;;
18983;SDS011;9626;52.552;13.436;2023-11-19T15:04:29;24.23;;;5.33;;
18983;SDS011;9626;52.552;13.436;2023-11-19T15:06:58;18.83;;;4.40;;
18983;SDS011;9626;52.552;13.436;2023-11-19T15:09:25;19.90;;;4.47;;
18983;SDS011;9626;52.552;13.436;2023-11-19T15:11:54;21.03;;;4.80;;
18983;SDS011;9626;52.552;13.436;2023-11-19T15:14:20;23.33;;;4.60;;
18983;SDS011;9626;52.552;13.436;2023-11-19T15:16:46;23.67;;;5.17;;